sensor_id;sensor_type;location;lat;lon;timestamp;pressure;altitude;pressure_sealevel;temperature;humidity
38452;BME280;24231;52.514;13.438;2023-07-13T00:02:00;100775.32;;;23.72;38.91
38452;BME280;24231;52.514;13.438;2023-07-13T00:04:27;100775.81;;;23.06;40.48
38452;BME280;24231;52.514;13.438;2023-07-13T00:06:54;100772.46;;;22.75;41.38
38452;BME280;24231;52.514;13.438;2023-07-13T00:09:21;100771.98;;;22.87;41.09
38452;BME280;24231;52.514;13.438;2023-07-13T00:11:51;100773.65;;;22.95;40.80
38452;BME280;24231;52.514;13.438;2023-07-13T00:14:19;100777.26;;;22.95;41.00
38452;BME280;24231;52.514;13.438;2023-07-13T00:16:46;100776.38;;;23.20;40.38
38452;BME280;24231;52.514;13.438;2023-07-13T00:19:13;100781.73;;;22.88;41.22
38452;BME280;24231;52.514;13.438;2023-07-13T00:21:41;100777.58;;;23.36;40.24
38452;BME280;24231;52.514;13.438;2023-07-13T00:24:12;100782.01;;;23.54;39.88
38452;BME280;24231;52.514;13.438;2023-07-13T00:26:40;100784.46;;;23.77;39.11
38452;BME280;24231;52.514;13.438;2023-07-13T00:29:07;100783.10;;;24.02;38.59
38452;BME280;24231;52.514;13.438;2023-07-13T00:31:35;100789.11;;;24.13;38.52
38452;BME280;24231;52.514;13.438;2023-07-13T00:34:02;100785.65;;;24.03;38.64
38452;BME280;24231;52.514;13.438;2023-07-13T00:36:30;100789.29;;;23.98;38.57
38452;BME280;24231;52.514;13.438;2023-07-13T00:38:58;100787.02;;;23.99;38.42
38452;BME280;24231;52.514;13.438;2023-07-13T00:41:25;100783.42;;;24.07;38.05
38452;BME280;24231;52.514;13.438;2023-07-13T00:43:52;100785.53;;;24.11;37.96
38452;BME280;24231;52.514;13.438;2023-07-13T00:46:24;100790.11;;;24.28;37.63
38452;BME280;24231;52.514;13.438;2023-07-13T00:48:53;100790.54;;;24.28;37.54
38452;BME280;24231;52.514;13.438;2023-07-13T00:51:25;100788.13;;;23.99;38.14
38452;BME280;24231;52.514;13.438;2023-07-13T00:53:56;100787.08;;;23.64;38.63
38452;BME280;24231;52.514;13.438;2023-07-13T00:56:24;100784.68;;;23.48;38.75
38452;BME280;24231;52.514;13.438;2023-07-13T00:58:52;100779.42;;;24.78;36.47
38452;BME280;24231;52.514;13.438;2023-07-13T01:01:20;100782.66;;;24.97;35.97
38452;BME280;24231;52.514;13.438;2023-07-13T01:03:46;100780.50;;;25.26;35.70
38452;BME280;24231;52.514;13.438;2023-07-13T01:06:18;100782.08;;;25.34;35.36
38452;BME280;24231;52.514;13.438;2023-07-13T01:08:47;100785.13;;;24.74;36.23
38452;BME280;24231;52.514;13.438;2023-07-13T01:11:18;100788.83;;;25.42;35.24
38452;BME280;24231;52.514;13.438;2023-07-13T01:13:45;100788.76;;;25.45;35.07
38452;BME280;24231;52.514;13.438;2023-07-13T01:16:22;100787.82;;;25.21;35.26
38452;BME280;24231;52.514;13.438;2023-07-13T01:18:51;100788.27;;;25.33;35.20
38452;BME280;24231;52.514;13.438;2023-07-13T01:21:18;100790.20;;;25.61;34.81
38452;BME280;24231;52.514;13.438;2023-07-13T01:23:45;100793.46;;;25.67;34.96
38452;BME280;24231;52.514;13.438;2023-07-13T01:26:12;100796.53;;;25.47;35.12
38452;BME280;24231;52.514;13.438;2023-07-13T01:28:39;100801.16;;;25.01;35.74
38452;BME280;24231;52.514;13.438;2023-07-13T01:31:06;100797.16;;;25.29;35.25
38452;BME280;24231;52.514;13.438;2023-07-13T01:33:36;100798.04;;;25.47;35.13
38452;BME280;24231;52.514;13.438;2023-07-13T01:36:03;100791.42;;;25.58;35.10
38452;BME280;24231;52.514;13.438;2023-07-13T01:38:31;100789.50;;;25.48;35.40
38452;BME280;24231;52.514;13.438;2023-07-13T01:40:57;100788.46;;;25.36;35.51
38452;BME280;24231;52.514;13.438;2023-07-13T01:43:25;100784.42;;;25.22;35.58
38452;BME280;24231;52.514;13.438;2023-07-13T01:45:52;100788.26;;;25.53;35.24
38452;BME280;24231;52.514;13.438;2023-07-13T01:48:19;100788.26;;;25.54;35.42
38452;BME280;24231;52.514;13.438;2023-07-13T01:50:47;100787.13;;;25.41;35.20
38452;BME280;24231;52.514;13.438;2023-07-13T01:53:15;100780.34;;;25.17;35.62
38452;BME280;24231;52.514;13.438;2023-07-13T01:55:42;100773.66;;;25.21;35.63
38452;BME280;24231;52.514;13.438;2023-07-13T01:58:09;100773.38;;;25.17;35.69
38452;BME280;24231;52.514;13.438;2023-07-13T02:00:36;100779.55;;;25.27;35.35
38452;BME280;24231;52.514;13.438;2023-07-13T02:03:03;100781.86;;;25.59;35.02
38452;BME280;24231;52.514;13.438;2023-07-13T02:05:30;100785.76;;;25.37;35.13
38452;BME280;24231;52.514;13.438;2023-07-13T02:07:57;100787.87;;;25.32;35.53
38452;BME280;24231;52.514;13.438;2023-07-13T02:10:24;100786.40;;;24.72;36.37
38452;BME280;24231;52.514;13.438;2023-07-13T02:12:51;100792.81;;;22.85;39.75
38452;BME280;24231;52.514;13.438;2023-07-13T02:15:18;100792.24;;;24.28;37.30
38452;BME280;24231;52.514;13.438;2023-07-13T02:17:45;100792.12;;;22.00;41.37
38452;BME280;24231;52.514;13.438;2023-07-13T02:20:13;100792.48;;;22.67;40.38
38452;BME280;24231;52.514;13.438;2023-07-13T02:22:40;100793.42;;;22.77;40.48
38452;BME280;24231;52.514;13.438;2023-07-13T02:25:07;100787.74;;;21.91;41.74
38452;BME280;24231;52.514;13.438;2023-07-13T02:27:34;100773.98;;;22.65;41.16
38452;BME280;24231;52.514;13.438;2023-07-13T02:30:01;100766.78;;;23.80;39.01
38452;BME280;24231;52.514;13.438;2023-07-13T02:32:28;100766.25;;;24.46;38.16
38452;BME280;24231;52.514;13.438;2023-07-13T02:34:55;100761.46;;;24.57;37.72
38452;BME280;24231;52.514;13.438;2023-07-13T02:37:22;100763.05;;;24.35;37.85
38452;BME280;24231;52.514;13.438;2023-07-13T02:39:49;100766.71;;;23.65;39.52
38452;BME280;24231;52.514;13.438;2023-07-13T02:42:16;100774.62;;;24.51;38.23
38452;BME280;24231;52.514;13.438;2023-07-13T02:44:43;100784.80;;;24.40;38.53
38452;BME280;24231;52.514;13.438;2023-07-13T02:47:10;100784.11;;;23.73;38.69
38452;BME280;24231;52.514;13.438;2023-07-13T02:49:37;100780.18;;;24.65;37.73
38452;BME280;24231;52.514;13.438;2023-07-13T02:52:04;100779.18;;;24.58;37.33
38452;BME280;24231;52.514;13.438;2023-07-13T02:54:31;100788.60;;;23.81;38.72
38452;BME280;24231;52.514;13.438;2023-07-13T02:56:58;100792.34;;;23.41;39.57
38452;BME280;24231;52.514;13.438;2023-07-13T02:59:25;100794.59;;;23.55;39.24
38452;BME280;24231;52.514;13.438;2023-07-13T03:01:52;100792.48;;;24.22;38.35
38452;BME280;24231;52.514;13.438;2023-07-13T03:04:19;100801.11;;;23.96;38.30
38452;BME280;24231;52.514;13.438;2023-07-13T03:06:46;100811.16;;;23.80;38.56
38452;BME280;24231;52.514;13.438;2023-07-13T03:09:13;100817.03;;;23.82;39.06
38452;BME280;24231;52.514;13.438;2023-07-13T03:11:41;100814.48;;;21.72;42.80
38452;BME280;24231;52.514;13.438;2023-07-13T03:14:08;100813.77;;;22.40;41.69
38452;BME280;24231;52.514;13.438;2023-07-13T03:16:35;100812.26;;;23.33;40.04
38452;BME280;24231;52.514;13.438;2023-07-13T03:19:02;100815.32;;;23.37;40.17
38452;BME280;24231;52.514;13.438;2023-07-13T03:21:30;100814.34;;;23.07;40.70
38452;BME280;24231;52.514;13.438;2023-07-13T03:23:57;100815.54;;;24.04;39.17
38452;BME280;24231;52.514;13.438;2023-07-13T03:26:24;100816.39;;;24.57;38.15
38452;BME280;24231;52.514;13.438;2023-07-13T03:28:51;100820.84;;;24.24;38.70
38452;BME280;24231;52.514;13.438;2023-07-13T03:31:20;100822.68;;;24.56;38.20
38452;BME280;24231;52.514;13.438;2023-07-13T03:33:47;100821.07;;;24.61;38.18
38452;BME280;24231;52.514;13.438;2023-07-13T03:36:16;100825.38;;;24.61;38.21
38452;BME280;24231;52.514;13.438;2023-07-13T03:38:50;100833.35;;;24.23;38.64
38452;BME280;24231;52.514;13.438;2023-07-13T03:41:18;100829.65;;;24.32;38.78
38452;BME280;24231;52.514;13.438;2023-07-13T03:43:45;100828.43;;;24.67;38.42
38452;BME280;24231;52.514;13.438;2023-07-13T03:46:12;100828.93;;;24.85;38.01
38452;BME280;24231;52.514;13.438;2023-07-13T03:48:40;100826.74;;;25.20;37.42
38452;BME280;24231;52.514;13.438;2023-07-13T03:51:07;100828.30;;;25.11;37.21
38452;BME280;24231;52.514;13.438;2023-07-13T03:53:37;100829.51;;;25.41;36.46
38452;BME280;24231;52.514;13.438;2023-07-13T03:56:05;100832.85;;;25.22;36.73
38452;BME280;24231;52.514;13.438;2023-07-13T03:58:35;100834.42;;;25.19;37.00
38452;BME280;24231;52.514;13.438;2023-07-13T04:01:04;100834.23;;;25.66;36.26
38452;BME280;24231;52.514;13.438;2023-07-13T04:03:32;100835.33;;;26.00;35.60
38452;BME280;24231;52.514;13.438;2023-07-13T04:05:59;100831.60;;;26.13;35.17
38452;BME280;24231;52.514;13.438;2023-07-13T04:08:26;100833.12;;;26.41;34.80
38452;BME280;24231;52.514;13.438;2023-07-13T04:10:54;100836.69;;;26.48;34.51
38452;BME280;24231;52.514;13.438;2023-07-13T04:13:21;100833.29;;;26.96;33.65
38452;BME280;24231;52.514;13.438;2023-07-13T04:15:49;100835.38;;;27.11;33.25
38452;BME280;24231;52.514;13.438;2023-07-13T04:18:16;100833.80;;;27.19;32.98
38452;BME280;24231;52.514;13.438;2023-07-13T04:20:43;100838.15;;;27.35;32.67
38452;BME280;24231;52.514;13.438;2023-07-13T04:23:10;100834.70;;;26.91;33.07
38452;BME280;24231;52.514;13.438;2023-07-13T04:25:37;100836.82;;;27.10;32.78
38452;BME280;24231;52.514;13.438;2023-07-13T04:28:04;100835.74;;;27.19;33.00
38452;BME280;24231;52.514;13.438;2023-07-13T04:30:32;100836.23;;;27.23;32.75
38452;BME280;24231;52.514;13.438;2023-07-13T04:32:59;100840.91;;;27.74;31.97
38452;BME280;24231;52.514;13.438;2023-07-13T04:35:26;100846.87;;;28.46;30.84
38452;BME280;24231;52.514;13.438;2023-07-13T04:37:53;100845.84;;;28.79;30.21
38452;BME280;24231;52.514;13.438;2023-07-13T04:40:20;100845.75;;;29.07;29.85
38452;BME280;24231;52.514;13.438;2023-07-13T04:42:47;100852.52;;;28.98;29.95
38452;BME280;24231;52.514;13.438;2023-07-13T04:45:14;100850.04;;;29.41;29.33
38452;BME280;24231;52.514;13.438;2023-07-13T04:47:41;100851.13;;;29.71;29.06
38452;BME280;24231;52.514;13.438;2023-07-13T04:50:09;100858.53;;;29.61;29.05
38452;BME280;24231;52.514;13.438;2023-07-13T04:52:37;100857.54;;;29.31;29.30
38452;BME280;24231;52.514;13.438;2023-07-13T04:55:05;100859.23;;;29.99;28.56
38452;BME280;24231;52.514;13.438;2023-07-13T04:57:32;100861.08;;;30.05;28.26
38452;BME280;24231;52.514;13.438;2023-07-13T05:00:00;100862.30;;;29.83;28.67
38452;BME280;24231;52.514;13.438;2023-07-13T05:02:27;100861.15;;;30.25;28.07
38452;BME280;24231;52.514;13.438;2023-07-13T05:04:54;100861.77;;;29.83;28.65
38452;BME280;24231;52.514;13.438;2023-07-13T05:07:22;100867.41;;;29.60;29.14
38452;BME280;24231;52.514;13.438;2023-07-13T05:09:49;100878.05;;;29.64;28.97
38452;BME280;24231;52.514;13.438;2023-07-13T05:12:17;100876.60;;;30.02;28.51
38452;BME280;24231;52.514;13.438;2023-07-13T05:14:45;100877.34;;;30.08;28.50
38452;BME280;24231;52.514;13.438;2023-07-13T05:17:12;100879.27;;;29.55;29.16
38452;BME280;24231;52.514;13.438;2023-07-13T05:19:39;100877.82;;;30.54;27.50
38452;BME280;24231;52.514;13.438;2023-07-13T05:22:07;100878.73;;;30.32;27.89
38452;BME280;24231;52.514;13.438;2023-07-13T05:24:34;100882.08;;;30.06;28.40
38452;BME280;24231;52.514;13.438;2023-07-13T05:27:02;100886.50;;;30.41;27.86
38452;BME280;24231;52.514;13.438;2023-07-13T05:29:29;100886.42;;;30.81;27.42
38452;BME280;24231;52.514;13.438;2023-07-13T05:31:57;100888.73;;;30.66;27.72
38452;BME280;24231;52.514;13.438;2023-07-13T05:34:24;100885.41;;;30.86;27.24
38452;BME280;24231;52.514;13.438;2023-07-13T05:36:51;100884.17;;;30.66;27.42
38452;BME280;24231;52.514;13.438;2023-07-13T05:39:19;100889.81;;;30.20;28.19
38452;BME280;24231;52.514;13.438;2023-07-13T05:41:46;100890.87;;;30.37;27.88
38452;BME280;24231;52.514;13.438;2023-07-13T05:44:14;100889.04;;;30.05;28.26
38452;BME280;24231;52.514;13.438;2023-07-13T05:46:41;100888.09;;;31.09;27.54
38452;BME280;24231;52.514;13.438;2023-07-13T05:49:09;100889.43;;;30.74;27.67
38452;BME280;24231;52.514;13.438;2023-07-13T05:51:36;100894.26;;;30.44;27.87
38452;BME280;24231;52.514;13.438;2023-07-13T05:54:44;100896.45;;;31.00;27.14
38452;BME280;24231;52.514;13.438;2023-07-13T05:57:11;100895.89;;;31.00;27.22
38452;BME280;24231;52.514;13.438;2023-07-13T05:59:38;100896.08;;;31.42;26.94
38452;BME280;24231;52.514;13.438;2023-07-13T06:02:07;100893.66;;;31.44;26.72
38452;BME280;24231;52.514;13.438;2023-07-13T06:04:35;100893.71;;;31.61;26.49
38452;BME280;24231;52.514;13.438;2023-07-13T06:07:02;100895.71;;;31.56;26.62
38452;BME280;24231;52.514;13.438;2023-07-13T06:09:29;100895.08;;;31.56;26.47
38452;BME280;24231;52.514;13.438;2023-07-13T06:11:57;100897.89;;;31.91;26.31
38452;BME280;24231;52.514;13.438;2023-07-13T06:14:25;100895.64;;;31.57;26.77
38452;BME280;24231;52.514;13.438;2023-07-13T06:16:53;100891.29;;;31.98;26.39
38452;BME280;24231;52.514;13.438;2023-07-13T06:19:20;100894.65;;;32.38;25.85
38452;BME280;24231;52.514;13.438;2023-07-13T06:21:47;100888.92;;;32.16;25.93
38452;BME280;24231;52.514;13.438;2023-07-13T06:24:15;100888.24;;;31.95;26.36
38452;BME280;24231;52.514;13.438;2023-07-13T06:26:43;100885.61;;;30.91;27.27
38452;BME280;24231;52.514;13.438;2023-07-13T06:29:10;100883.20;;;30.92;27.51
38452;BME280;24231;52.514;13.438;2023-07-13T06:31:38;100875.51;;;31.21;27.00
38452;BME280;24231;52.514;13.438;2023-07-13T06:34:05;100879.74;;;31.04;27.15
38452;BME280;24231;52.514;13.438;2023-07-13T06:36:32;100882.29;;;31.07;27.20
38452;BME280;24231;52.514;13.438;2023-07-13T06:38:59;100882.61;;;31.33;27.40
38452;BME280;24231;52.514;13.438;2023-07-13T06:41:27;100880.76;;;31.23;27.15
38452;BME280;24231;52.514;13.438;2023-07-13T06:43:54;100880.98;;;30.01;28.59
38452;BME280;24231;52.514;13.438;2023-07-13T06:46:22;100885.90;;;29.72;29.00
38452;BME280;24231;52.514;13.438;2023-07-13T06:48:49;100886.80;;;29.72;28.91
38452;BME280;24231;52.514;13.438;2023-07-13T06:51:17;100888.19;;;29.94;29.25
38452;BME280;24231;52.514;13.438;2023-07-13T06:53:44;100885.74;;;30.05;28.69
38452;BME280;24231;52.514;13.438;2023-07-13T06:56:12;100888.72;;;29.42;29.32
38452;BME280;24231;52.514;13.438;2023-07-13T06:58:39;100891.12;;;29.47;29.27
38452;BME280;24231;52.514;13.438;2023-07-13T07:01:06;100882.79;;;30.18;28.04
38452;BME280;24231;52.514;13.438;2023-07-13T07:03:34;100885.10;;;31.16;26.54
38452;BME280;24231;52.514;13.438;2023-07-13T07:06:02;100883.28;;;31.94;25.93
38452;BME280;24231;52.514;13.438;2023-07-13T07:08:30;100884.69;;;32.61;24.84
38452;BME280;24231;52.514;13.438;2023-07-13T07:10:57;100882.70;;;32.73;24.38
38452;BME280;24231;52.514;13.438;2023-07-13T07:13:25;100884.72;;;32.55;24.82
38452;BME280;24231;52.514;13.438;2023-07-13T07:15:52;100885.15;;;32.89;23.96
38452;BME280;24231;52.514;13.438;2023-07-13T07:18:20;100882.11;;;32.84;24.05
38452;BME280;24231;52.514;13.438;2023-07-13T07:20:58;100884.60;;;33.13;23.69
38452;BME280;24231;52.514;13.438;2023-07-13T07:23:25;100884.13;;;32.33;24.61
38452;BME280;24231;52.514;13.438;2023-07-13T07:25:53;100885.92;;;31.63;24.74
38452;BME280;24231;52.514;13.438;2023-07-13T07:28:21;100893.88;;;32.05;25.01
38452;BME280;24231;52.514;13.438;2023-07-13T07:30:49;100890.07;;;32.57;23.86
38452;BME280;24231;52.514;13.438;2023-07-13T07:33:19;100892.61;;;33.08;23.87
38452;BME280;24231;52.514;13.438;2023-07-13T07:35:46;100892.43;;;33.58;23.67
38452;BME280;24231;52.514;13.438;2023-07-13T07:38:14;100896.64;;;32.53;24.13
38452;BME280;24231;52.514;13.438;2023-07-13T07:40:41;100894.66;;;32.60;24.44
38452;BME280;24231;52.514;13.438;2023-07-13T07:43:10;100896.68;;;32.17;24.72
38452;BME280;24231;52.514;13.438;2023-07-13T07:45:39;100898.19;;;32.08;23.82
38452;BME280;24231;52.514;13.438;2023-07-13T07:48:09;100899.69;;;31.96;24.63
38452;BME280;24231;52.514;13.438;2023-07-13T07:50:36;100896.55;;;31.41;25.62
38452;BME280;24231;52.514;13.438;2023-07-13T07:53:03;100899.79;;;30.18;27.16
38452;BME280;24231;52.514;13.438;2023-07-13T07:55:33;100900.48;;;30.24;26.86
38452;BME280;24231;52.514;13.438;2023-07-13T07:58:01;100904.12;;;30.85;26.58
38452;BME280;24231;52.514;13.438;2023-07-13T08:00:28;100904.02;;;30.77;26.19
38452;BME280;24231;52.514;13.438;2023-07-13T08:02:56;100907.34;;;30.59;26.62
38452;BME280;24231;52.514;13.438;2023-07-13T08:05:23;100907.57;;;30.39;26.91
38452;BME280;24231;52.514;13.438;2023-07-13T08:07:51;100910.22;;;30.41;26.93
38452;BME280;24231;52.514;13.438;2023-07-13T08:10:19;100907.25;;;29.99;27.60
38452;BME280;24231;52.514;13.438;2023-07-13T08:12:46;100912.77;;;28.47;29.87
38452;BME280;24231;52.514;13.438;2023-07-13T08:15:16;100913.67;;;28.57;29.88
38452;BME280;24231;52.514;13.438;2023-07-13T08:17:43;100915.96;;;28.33;29.93
38452;BME280;24231;52.514;13.438;2023-07-13T08:20:11;100919.20;;;29.35;28.63
38452;BME280;24231;52.514;13.438;2023-07-13T08:22:38;100907.76;;;30.00;27.74
38452;BME280;24231;52.514;13.438;2023-07-13T08:25:06;100912.51;;;30.06;27.38
38452;BME280;24231;52.514;13.438;2023-07-13T08:27:34;100912.33;;;30.07;27.20
38452;BME280;24231;52.514;13.438;2023-07-13T08:30:02;100912.53;;;29.58;27.30
38452;BME280;24231;52.514;13.438;2023-07-13T08:32:40;100915.41;;;28.73;28.40
38452;BME280;24231;52.514;13.438;2023-07-13T08:35:07;100924.32;;;29.41;27.83
38452;BME280;24231;52.514;13.438;2023-07-13T08:37:35;100924.67;;;29.53;27.71
38452;BME280;24231;52.514;13.438;2023-07-13T08:40:03;100928.84;;;29.59;27.82
38452;BME280;24231;52.514;13.438;2023-07-13T08:42:35;100927.92;;;29.37;27.76
38452;BME280;24231;52.514;13.438;2023-07-13T08:45:13;100924.37;;;29.84;27.30
38452;BME280;24231;52.514;13.438;2023-07-13T08:47:46;100927.67;;;29.29;28.08
38452;BME280;24231;52.514;13.438;2023-07-13T08:50:18;100929.85;;;29.31;28.23
38452;BME280;24231;52.514;13.438;2023-07-13T08:52:47;100924.63;;;29.81;27.59
38452;BME280;24231;52.514;13.438;2023-07-13T08:55:21;100927.98;;;29.51;27.83
38452;BME280;24231;52.514;13.438;2023-07-13T08:57:54;100931.53;;;29.28;28.39
38452;BME280;24231;52.514;13.438;2023-07-13T09:00:25;100930.29;;;29.89;27.42
38452;BME280;24231;52.514;13.438;2023-07-13T09:02:59;100928.92;;;30.32;27.73
38452;BME280;24231;52.514;13.438;2023-07-13T09:05:31;100928.33;;;30.55;28.16
38452;BME280;24231;52.514;13.438;2023-07-13T09:08:08;100926.88;;;31.15;27.35
38452;BME280;24231;52.514;13.438;2023-07-13T09:10:44;100928.04;;;30.91;27.25
38452;BME280;24231;52.514;13.438;2023-07-13T09:13:23;100931.02;;;31.35;26.09
38452;BME280;24231;52.514;13.438;2023-07-13T09:15:54;100932.33;;;30.58;27.21
38452;BME280;24231;52.514;13.438;2023-07-13T09:18:27;100931.67;;;30.36;26.63
38452;BME280;24231;52.514;13.438;2023-07-13T09:20:58;100928.92;;;30.22;27.40
38452;BME280;24231;52.514;13.438;2023-07-13T09:23:28;100924.50;;;31.72;25.56
38452;BME280;24231;52.514;13.438;2023-07-13T09:26:04;100926.44;;;31.32;24.49
38452;BME280;24231;52.514;13.438;2023-07-13T09:28:37;100924.43;;;31.40;24.31
38452;BME280;24231;52.514;13.438;2023-07-13T09:31:09;100919.97;;;30.78;25.84
38452;BME280;24231;52.514;13.438;2023-07-13T09:33:38;100917.68;;;31.22;23.83
38452;BME280;24231;52.514;13.438;2023-07-13T09:36:18;100919.96;;;31.56;23.50
38452;BME280;24231;52.514;13.438;2023-07-13T09:38:47;100919.40;;;31.87;23.07
38452;BME280;24231;52.514;13.438;2023-07-13T09:41:21;100915.68;;;32.22;23.46
38452;BME280;24231;52.514;13.438;2023-07-13T09:44:32;100918.28;;;32.03;23.23
38452;BME280;24231;52.514;13.438;2023-07-13T09:47:01;100923.88;;;31.83;24.27
38452;BME280;24231;52.514;13.438;2023-07-13T09:49:29;100927.13;;;31.53;23.20
38452;BME280;24231;52.514;13.438;2023-07-13T09:52:02;100925.95;;;30.95;24.11
38452;BME280;24231;52.514;13.438;2023-07-13T09:54:35;100923.63;;;31.12;22.86
38452;BME280;24231;52.514;13.438;2023-07-13T09:57:11;100920.60;;;31.84;23.60
38452;BME280;24231;52.514;13.438;2023-07-13T09:59:44;100927.25;;;32.13;23.72
38452;BME280;24231;52.514;13.438;2023-07-13T10:02:30;100927.56;;;31.24;23.02
38452;BME280;24231;52.514;13.438;2023-07-13T10:04:59;100925.39;;;29.88;24.32
38452;BME280;24231;52.514;13.438;2023-07-13T10:07:27;100920.12;;;30.49;23.37
38452;BME280;24231;52.514;13.438;2023-07-13T10:09:54;100919.90;;;31.04;23.32
38452;BME280;24231;52.514;13.438;2023-07-13T10:12:21;100920.80;;;31.24;22.98
38452;BME280;24231;52.514;13.438;2023-07-13T10:14:48;100920.03;;;30.48;23.60
38452;BME280;24231;52.514;13.438;2023-07-13T10:17:19;100920.24;;;31.03;23.29
38452;BME280;24231;52.514;13.438;2023-07-13T10:19:53;100922.34;;;32.17;23.14
38452;BME280;24231;52.514;13.438;2023-07-13T10:22:26;100917.02;;;30.53;23.99
38452;BME280;24231;52.514;13.438;2023-07-13T10:24:54;100919.16;;;29.95;25.23
38452;BME280;24231;52.514;13.438;2023-07-13T10:27:28;100922.50;;;29.60;25.72
38452;BME280;24231;52.514;13.438;2023-07-13T10:30:02;100917.84;;;29.72;25.93
38452;BME280;24231;52.514;13.438;2023-07-13T10:32:33;100915.03;;;29.78;24.67
38452;BME280;24231;52.514;13.438;2023-07-13T10:35:01;100920.73;;;30.17;24.14
38452;BME280;24231;52.514;13.438;2023-07-13T10:37:37;100932.77;;;28.81;25.21
38452;BME280;24231;52.514;13.438;2023-07-13T10:40:12;100927.64;;;30.29;23.79
38452;BME280;24231;52.514;13.438;2023-07-13T10:42:49;100925.88;;;29.64;24.16
38452;BME280;24231;52.514;13.438;2023-07-13T10:45:18;100932.89;;;29.10;25.03
38452;BME280;24231;52.514;13.438;2023-07-13T10:47:47;100929.82;;;28.12;26.51
38452;BME280;24231;52.514;13.438;2023-07-13T10:50:19;100935.03;;;28.75;25.90
38452;BME280;24231;52.514;13.438;2023-07-13T10:52:49;100931.17;;;28.32;26.74
38452;BME280;24231;52.514;13.438;2023-07-13T10:56:27;100932.37;;;29.38;25.76
38452;BME280;24231;52.514;13.438;2023-07-13T10:59:11;100919.33;;;30.56;23.61
38452;BME280;24231;52.514;13.438;2023-07-13T11:01:41;100916.82;;;30.72;23.73
38452;BME280;24231;52.514;13.438;2023-07-13T11:04:13;100912.57;;;30.87;24.08
38452;BME280;24231;52.514;13.438;2023-07-13T11:06:43;100913.99;;;29.53;24.54
38452;BME280;24231;52.514;13.438;2023-07-13T11:09:31;100911.00;;;29.66;24.88
38452;BME280;24231;52.514;13.438;2023-07-13T11:12:00;100913.55;;;30.42;23.67
38452;BME280;24231;52.514;13.438;2023-07-13T11:14:30;100915.41;;;29.88;23.61
38452;BME280;24231;52.514;13.438;2023-07-13T11:17:24;100920.77;;;29.74;23.73
38452;BME280;24231;52.514;13.438;2023-07-13T11:20:42;100921.86;;;29.26;23.55
38452;BME280;24231;52.514;13.438;2023-07-13T11:23:21;100922.25;;;29.37;24.33
38452;BME280;24231;52.514;13.438;2023-07-13T11:25:53;100917.40;;;29.31;24.15
38452;BME280;24231;52.514;13.438;2023-07-13T11:28:24;100912.86;;;28.56;24.18
38452;BME280;24231;52.514;13.438;2023-07-13T11:31:02;100909.08;;;28.76;25.05
38452;BME280;24231;52.514;13.438;2023-07-13T11:33:50;100908.54;;;29.59;24.12
38452;BME280;24231;52.514;13.438;2023-07-13T11:36:19;100904.73;;;29.56;23.79
38452;BME280;24231;52.514;13.438;2023-07-13T11:38:56;100906.77;;;28.93;24.77
38452;BME280;24231;52.514;13.438;2023-07-13T11:41:27;100912.86;;;28.62;25.63
38452;BME280;24231;52.514;13.438;2023-07-13T11:44:06;100902.64;;;28.39;25.65
38452;BME280;24231;52.514;13.438;2023-07-13T11:46:34;100906.83;;;28.35;25.28
38452;BME280;24231;52.514;13.438;2023-07-13T11:49:05;100914.46;;;27.19;27.08
38452;BME280;24231;52.514;13.438;2023-07-13T11:51:34;100906.33;;;27.94;27.05
38452;BME280;24231;52.514;13.438;2023-07-13T11:54:05;100904.76;;;27.81;27.51
38452;BME280;24231;52.514;13.438;2023-07-13T11:56:33;100904.25;;;28.40;26.26
38452;BME280;24231;52.514;13.438;2023-07-13T11:59:06;100901.88;;;28.67;25.65
38452;BME280;24231;52.514;13.438;2023-07-13T12:01:38;100905.61;;;29.07;25.02
38452;BME280;24231;52.514;13.438;2023-07-13T12:04:19;100897.67;;;29.99;23.13
38452;BME280;24231;52.514;13.438;2023-07-13T12:06:55;100911.70;;;29.14;23.93
38452;BME280;24231;52.514;13.438;2023-07-13T12:09:22;100900.51;;;28.57;24.61
38452;BME280;24231;52.514;13.438;2023-07-13T12:11:49;100907.52;;;29.26;23.94
38452;BME280;24231;52.514;13.438;2023-07-13T12:14:18;100895.19;;;29.80;23.35
38452;BME280;24231;52.514;13.438;2023-07-13T12:16:46;100893.40;;;29.90;23.40
38452;BME280;24231;52.514;13.438;2023-07-13T12:19:18;100894.95;;;29.15;24.35
38452;BME280;24231;52.514;13.438;2023-07-13T12:21:47;100891.44;;;29.68;23.36
38452;BME280;24231;52.514;13.438;2023-07-13T12:24:16;100892.53;;;28.38;25.32
38452;BME280;24231;52.514;13.438;2023-07-13T12:26:43;100895.43;;;28.10;25.86
38452;BME280;24231;52.514;13.438;2023-07-13T12:29:15;100902.58;;;28.40;25.82
38452;BME280;24231;52.514;13.438;2023-07-13T12:31:44;100900.07;;;28.64;25.39
38452;BME280;24231;52.514;13.438;2023-07-13T12:34:15;100899.99;;;29.43;24.75
38452;BME280;24231;52.514;13.438;2023-07-13T12:36:48;100898.16;;;29.57;24.15
38452;BME280;24231;52.514;13.438;2023-07-13T12:39:19;100900.11;;;28.69;24.35
38452;BME280;24231;52.514;13.438;2023-07-13T12:41:47;100902.56;;;28.84;24.32
38452;BME280;24231;52.514;13.438;2023-07-13T12:44:16;100899.17;;;28.54;24.69
38452;BME280;24231;52.514;13.438;2023-07-13T12:47:06;100900.22;;;29.09;24.04
38452;BME280;24231;52.514;13.438;2023-07-13T12:49:34;100889.90;;;28.10;24.67
38452;BME280;24231;52.514;13.438;2023-07-13T12:52:04;100899.24;;;28.37;24.84
38452;BME280;24231;52.514;13.438;2023-07-13T12:54:32;100893.22;;;27.87;25.24